Skip Navigation Links
NOAA logo - Click to go to the NOAA homepage
NOAA's National Weather Service
Alaska Aviation Weather Unit
  NWS logo - Click to go to the NWS homepage
Left Navbar Graphic     10 AKDT = 18 GMT

   
NOAA is celebrating 200 years of science, service, and stewardship. Visit the NOAA 200th celebration Web site to learn more.
USA.gov is the U.S. Government's official Web portal to all Federal, state and local government Web resources and services.
Facebook
NWS on Facebook

Important Change Regarding the AAWU Web Presence

 

Over the last several months, the AAWU has been working to navigate its webpages to a nationally supported server. Security, as well as other needs, have necessitated the change.  We have been given an extension for the site changeover while we diligently work at addressing feedback received. As of July 14, 2017, aawu.arh.noaa.gov will be discontinued. The new AAWU web address is weather.gov/aawu. It is now live and will run in-parallel with the old site until it is discontinued on July 14, 2017. Please continue to send any feedback or questions regarding the new webpages to nws.ar.aawu.webauthors@noaa.gov.  Thank you for your patience during this time of transition.
AAWU Home :: Display TAF Add Bookmark
TAF PAMC 261728Z 2618/2718  01006KT 5SM BR VCSH SCT005 OVC015
     FM262000 03008KT P6SM FEW050 SCT100 BKN200
     FM270100 04010KT P6SM BKN050 BKN100
     FM270800 33008KT P6SM FEW050 SCT100=



METAR PAMC 261253Z AUTO 31004KT 10SM OVC080 06/04 A2983 RMK AO2 SLP107 T00610044 TSNO= METAR PAMC 261353Z AUTO 35005KT 10SM BKN014 BKN042 OVC080 07/04 A2984 RMK AO2 SLP107 T00670044 TSNO= PAMC 261437Z AUTO 36008KT 10SM FEW009 SCT013 OVC018 07/04 A2983= METAR PAMC 261453Z AUTO 36008KT 10SM OVC019 07/04 A2983 RMK AO2 SLP107 T00670044 56001 TSNO= PAMC 261532Z AUTO 01008KT 10SM FEW008 OVC017 07/04 A2984= METAR PAMC 261553Z AUTO 02007KT 7SM FEW006 OVC017 06/05 A2984 RMK AO2 SLP108 T00610050 TSNO= PAMC 261615Z AUTO 02006KT 8SM -RA BKN005 OVC018 06/05 A2984= METAR PAMC 261653Z 02007KT 5SM BR BKN005 OVC015 06/05 A2984 RMK AO2 RAB02E17 SLP109 P0000 T00610050= PAMC 261700Z 01006KT 5SM BR SCT005 OVC015 06/04 A2984= PAMC 261700Z 01006KT 5SM BR SCT005 OVC015 06/04 A2984 RMK AO2 T00610044= METAR PAMC 261753Z 02005KT 5SM BR SCT005 OVC015 06/04 A2984 RMK AO2 SLP111 60000 T00610044 10072 20056 53002=
 Alaska TAF Map

NOAA's National Weather Service
Alaska Aviation Weather Unit
6930 Sand Lake Road
Anchorage, AK 99502-1845
Disclaimer
Credits
Glossary
Privacy Policy
About Us
Career Opportunities
Contact AAWU Internet Services Site last modified: April, 17th 2012